sensor_id;sensor_type;location;lat;lon;timestamp;pressure;altitude;pressure_sealevel;temperature;humidity
7200;BME280;3641;49.082;8.200;2023-02-12T00:02:14;102425.28;;;5.58;76.99
7200;BME280;3641;49.082;8.200;2023-02-12T00:04:42;102427.91;;;5.60;76.77
7200;BME280;3641;49.082;8.200;2023-02-12T00:07:09;102424.34;;;5.59;77.15
7200;BME280;3641;49.082;8.200;2023-02-12T00:09:36;102432.47;;;5.59;76.97
7200;BME280;3641;49.082;8.200;2023-02-12T00:12:02;102436.91;;;5.60;77.01
7200;BME280;3641;49.082;8.200;2023-02-12T00:14:29;102433.53;;;5.57;76.93
7200;BME280;3641;49.082;8.200;2023-02-12T00:16:55;102424.34;;;5.59;77.21
7200;BME280;3641;49.082;8.200;2023-02-12T00:19:22;102421.16;;;5.53;77.63
7200;BME280;3641;49.082;8.200;2023-02-12T00:21:50;102426.41;;;5.41;79.71
7200;BME280;3641;49.082;8.200;2023-02-12T00:24:16;102427.75;;;5.49;77.86
7200;BME280;3641;49.082;8.200;2023-02-12T00:26:43;102430.03;;;5.55;77.45
7200;BME280;3641;49.082;8.200;2023-02-12T00:29:09;102429.28;;;5.53;77.51
7200;BME280;3641;49.082;8.200;2023-02-12T00:31:35;102425.72;;;5.52;77.89
7200;BME280;3641;49.082;8.200;2023-02-12T00:34:02;102425.31;;;5.44;78.01
7200;BME280;3641;49.082;8.200;2023-02-12T00:36:30;102425.78;;;5.23;85.15
7200;BME280;3641;49.082;8.200;2023-02-12T00:38:58;102427.53;;;5.10;85.40
7200;BME280;3641;49.082;8.200;2023-02-12T00:41:25;102422.38;;;5.20;83.95
7200;BME280;3641;49.082;8.200;2023-02-12T00:43:52;102431.94;;;5.40;78.93
7200;BME280;3641;49.082;8.200;2023-02-12T00:46:19;102436.94;;;5.46;78.85
7200;BME280;3641;49.082;8.200;2023-02-12T00:48:45;102433.34;;;5.45;78.75
7200;BME280;3641;49.082;8.200;2023-02-12T00:51:12;102435.88;;;5.49;78.40
7200;BME280;3641;49.082;8.200;2023-02-12T00:53:39;102429.88;;;5.43;78.71
7200;BME280;3641;49.082;8.200;2023-02-12T00:56:07;102431.25;;;5.51;77.90
7200;BME280;3641;49.082;8.200;2023-02-12T00:58:36;102438.47;;;5.50;78.05
7200;BME280;3641;49.082;8.200;2023-02-12T01:01:03;102437.50;;;5.51;77.62
7200;BME280;3641;49.082;8.200;2023-02-12T01:03:29;102445.75;;;5.50;77.90
7200;BME280;3641;49.082;8.200;2023-02-12T01:05:56;102448.34;;;5.51;78.05
7200;BME280;3641;49.082;8.200;2023-02-12T01:08:22;102442.06;;;5.51;77.70
7200;BME280;3641;49.082;8.200;2023-02-12T01:10:53;102449.09;;;5.53;77.96
7200;BME280;3641;49.082;8.200;2023-02-12T01:13:22;102441.53;;;5.58;77.44
7200;BME280;3641;49.082;8.200;2023-02-12T01:16:00;102448.91;;;5.56;77.57
7200;BME280;3641;49.082;8.200;2023-02-12T01:18:27;102452.38;;;5.58;77.79
7200;BME280;3641;49.082;8.200;2023-02-12T01:20:53;102455.09;;;5.58;77.11
7200;BME280;3641;49.082;8.200;2023-02-12T01:23:20;102459.09;;;5.53;77.87
7200;BME280;3641;49.082;8.200;2023-02-12T01:25:46;102460.75;;;5.55;77.53
7200;BME280;3641;49.082;8.200;2023-02-12T01:28:12;102461.78;;;5.53;77.68
7200;BME280;3641;49.082;8.200;2023-02-12T01:30:40;102463.66;;;5.52;77.70
7200;BME280;3641;49.082;8.200;2023-02-12T01:33:07;102460.25;;;5.49;78.24
7200;BME280;3641;49.082;8.200;2023-02-12T01:35:33;102454.72;;;5.50;77.75
7200;BME280;3641;49.082;8.200;2023-02-12T01:38:02;102457.53;;;5.49;78.18
7200;BME280;3641;49.082;8.200;2023-02-12T01:40:28;102452.81;;;5.52;77.68
7200;BME280;3641;49.082;8.200;2023-02-12T01:42:59;102455.31;;;5.55;78.00
7200;BME280;3641;49.082;8.200;2023-02-12T01:45:47;102454.53;;;5.53;78.08
7200;BME280;3641;49.082;8.200;2023-02-12T01:48:16;102445.34;;;5.56;77.83
7200;BME280;3641;49.082;8.200;2023-02-12T01:50:45;102439.06;;;5.55;77.74
7200;BME280;3641;49.082;8.200;2023-02-12T01:53:14;102447.09;;;5.57;77.72
7200;BME280;3641;49.082;8.200;2023-02-12T01:55:48;102446.19;;;5.56;77.82
7200;BME280;3641;49.082;8.200;2023-02-12T01:58:16;102438.19;;;5.55;77.92
7200;BME280;3641;49.082;8.200;2023-02-12T02:00:44;102437.97;;;5.58;77.75
7200;BME280;3641;49.082;8.200;2023-02-12T02:03:11;102446.19;;;5.56;78.18
7200;BME280;3641;49.082;8.200;2023-02-12T02:05:43;102439.81;;;5.57;78.15
7200;BME280;3641;49.082;8.200;2023-02-12T02:08:12;102445.25;;;5.57;77.64
7200;BME280;3641;49.082;8.200;2023-02-12T02:10:38;102431.69;;;5.57;77.60
7200;BME280;3641;49.082;8.200;2023-02-12T02:13:05;102446.19;;;5.56;77.73
7200;BME280;3641;49.082;8.200;2023-02-12T02:15:53;102443.69;;;5.53;78.35
7200;BME280;3641;49.082;8.200;2023-02-12T02:18:25;102433.84;;;5.52;78.35
7200;BME280;3641;49.082;8.200;2023-02-12T02:21:21;102436.56;;;5.52;78.62
7200;BME280;3641;49.082;8.200;2023-02-12T02:24:20;102432.00;;;5.53;78.46
7200;BME280;3641;49.082;8.200;2023-02-12T02:27:14;102434.50;;;5.56;77.92
7200;BME280;3641;49.082;8.200;2023-02-12T02:29:53;102430.16;;;5.53;78.08
7200;BME280;3641;49.082;8.200;2023-02-12T02:32:26;102424.72;;;5.53;78.35
7200;BME280;3641;49.082;8.200;2023-02-12T02:34:59;102425.81;;;5.51;78.82
7200;BME280;3641;49.082;8.200;2023-02-12T02:37:27;102423.66;;;5.56;77.98
7200;BME280;3641;49.082;8.200;2023-02-12T02:39:59;102416.69;;;5.52;78.68
7200;BME280;3641;49.082;8.200;2023-02-12T02:42:32;102420.09;;;5.55;78.33
7200;BME280;3641;49.082;8.200;2023-02-12T02:45:06;102417.59;;;5.52;78.60
7200;BME280;3641;49.082;8.200;2023-02-12T02:47:38;102422.13;;;5.52;78.57
7200;BME280;3641;49.082;8.200;2023-02-12T02:50:09;102418.56;;;5.51;78.55
7200;BME280;3641;49.082;8.200;2023-02-12T02:52:42;102413.53;;;5.45;78.70
7200;BME280;3641;49.082;8.200;2023-02-12T02:55:12;102415.75;;;5.53;78.38
7200;BME280;3641;49.082;8.200;2023-02-12T02:57:45;102408.47;;;5.53;78.41
7200;BME280;3641;49.082;8.200;2023-02-12T03:00:17;102410.44;;;5.51;78.61
7200;BME280;3641;49.082;8.200;2023-02-12T03:02:51;102408.38;;;5.55;78.34
7200;BME280;3641;49.082;8.200;2023-02-12T03:05:23;102412.28;;;5.51;78.87
7200;BME280;3641;49.082;8.200;2023-02-12T03:07:55;102404.59;;;5.57;78.67
7200;BME280;3641;49.082;8.200;2023-02-12T03:10:26;102405.97;;;5.50;79.13
7200;BME280;3641;49.082;8.200;2023-02-12T03:12:57;102400.44;;;5.52;78.48
7200;BME280;3641;49.082;8.200;2023-02-12T03:15:32;102404.16;;;5.51;78.96
7200;BME280;3641;49.082;8.200;2023-02-12T03:18:06;102402.31;;;5.51;78.83
7200;BME280;3641;49.082;8.200;2023-02-12T03:20:35;102404.91;;;5.53;78.66
7200;BME280;3641;49.082;8.200;2023-02-12T03:23:10;102400.75;;;5.47;79.16
7200;BME280;3641;49.082;8.200;2023-02-12T03:25:43;102401.63;;;5.48;79.14
7200;BME280;3641;49.082;8.200;2023-02-12T03:28:16;102404.06;;;5.52;78.95
7200;BME280;3641;49.082;8.200;2023-02-12T03:30:47;102405.97;;;5.50;78.63
7200;BME280;3641;49.082;8.200;2023-02-12T03:33:24;102416.81;;;5.50;79.05
7200;BME280;3641;49.082;8.200;2023-02-12T03:35:57;102417.50;;;5.54;78.42
7200;BME280;3641;49.082;8.200;2023-02-12T03:38:34;102415.84;;;5.51;79.14
7200;BME280;3641;49.082;8.200;2023-02-12T03:41:05;102407.72;;;5.51;78.78
7200;BME280;3641;49.082;8.200;2023-02-12T03:43:41;102411.09;;;5.55;78.85
7200;BME280;3641;49.082;8.200;2023-02-12T03:46:14;102416.81;;;5.50;78.58
7200;BME280;3641;49.082;8.200;2023-02-12T03:48:49;102413.22;;;5.50;79.09
7200;BME280;3641;49.082;8.200;2023-02-12T03:51:22;102417.69;;;5.51;78.87
7200;BME280;3641;49.082;8.200;2023-02-12T03:53:52;102413.13;;;5.51;78.79
7200;BME280;3641;49.082;8.200;2023-02-12T03:56:24;102412.38;;;5.49;79.15
7200;BME280;3641;49.082;8.200;2023-02-12T03:58:53;102423.22;;;5.49;78.96
7200;BME280;3641;49.082;8.200;2023-02-12T04:01:19;102422.31;;;5.49;78.86
7200;BME280;3641;49.082;8.200;2023-02-12T04:03:47;102430.16;;;5.53;78.42
7200;BME280;3641;49.082;8.200;2023-02-12T04:06:24;102428.53;;;5.51;78.98
7200;BME280;3641;49.082;8.200;2023-02-12T04:08:51;102424.06;;;5.50;78.90
7200;BME280;3641;49.082;8.200;2023-02-12T04:11:24;102431.13;;;5.52;78.91
7200;BME280;3641;49.082;8.200;2023-02-12T04:14:07;102428.53;;;5.51;79.39
7200;BME280;3641;49.082;8.200;2023-02-12T04:16:40;102431.25;;;5.51;79.22
7200;BME280;3641;49.082;8.200;2023-02-12T04:19:13;102429.50;;;5.50;79.08
7200;BME280;3641;49.082;8.200;2023-02-12T04:21:52;102429.38;;;5.51;78.98
7200;BME280;3641;49.082;8.200;2023-02-12T04:24:29;102429.38;;;5.51;79.60
7200;BME280;3641;49.082;8.200;2023-02-12T04:27:02;102436.06;;;5.45;79.25
7200;BME280;3641;49.082;8.200;2023-02-12T04:29:39;102432.28;;;5.48;79.44
7200;BME280;3641;49.082;8.200;2023-02-12T04:32:11;102436.56;;;5.52;79.13
7200;BME280;3641;49.082;8.200;2023-02-12T04:34:48;102435.66;;;5.52;79.19
7200;BME280;3641;49.082;8.200;2023-02-12T04:37:18;102441.97;;;5.52;78.81
7200;BME280;3641;49.082;8.200;2023-02-12T04:39:48;102444.00;;;5.49;79.52
7200;BME280;3641;49.082;8.200;2023-02-12T04:42:15;102435.75;;;5.50;79.37
7200;BME280;3641;49.082;8.200;2023-02-12T04:44:43;102439.47;;;5.49;79.15
7200;BME280;3641;49.082;8.200;2023-02-12T04:47:10;102443.88;;;5.50;79.31
7200;BME280;3641;49.082;8.200;2023-02-12T04:49:37;102439.38;;;5.51;78.73
7200;BME280;3641;49.082;8.200;2023-02-12T04:52:05;102450.19;;;5.51;78.78
7200;BME280;3641;49.082;8.200;2023-02-12T04:54:31;102440.22;;;5.51;78.66
7200;BME280;3641;49.082;8.200;2023-02-12T04:56:58;102442.16;;;5.49;79.04
7200;BME280;3641;49.082;8.200;2023-02-12T04:59:24;102445.94;;;5.46;80.13
7200;BME280;3641;49.082;8.200;2023-02-12T05:01:51;102445.75;;;5.50;79.15
7200;BME280;3641;49.082;8.200;2023-02-12T05:04:18;102442.28;;;5.48;79.33
7200;BME280;3641;49.082;8.200;2023-02-12T05:06:45;102446.91;;;5.45;79.81
7200;BME280;3641;49.082;8.200;2023-02-12T05:09:16;102452.13;;;5.49;79.15
7200;BME280;3641;49.082;8.200;2023-02-12T05:11:43;102444.09;;;5.47;79.19
7200;BME280;3641;49.082;8.200;2023-02-12T05:14:11;102443.22;;;5.46;79.37
7200;BME280;3641;49.082;8.200;2023-02-12T05:16:37;102444.97;;;5.48;79.23
7200;BME280;3641;49.082;8.200;2023-02-12T05:19:04;102440.41;;;5.48;79.11
7200;BME280;3641;49.082;8.200;2023-02-12T05:21:33;102439.47;;;5.49;78.88
7200;BME280;3641;49.082;8.200;2023-02-12T05:24:00;102435.00;;;5.48;79.58
7200;BME280;3641;49.082;8.200;2023-02-12T05:26:28;102428.72;;;5.48;79.53
7200;BME280;3641;49.082;8.200;2023-02-12T05:28:55;102427.75;;;5.49;79.71
7200;BME280;3641;49.082;8.200;2023-02-12T05:31:22;102433.25;;;5.47;79.18
7200;BME280;3641;49.082;8.200;2023-02-12T05:33:49;102441.56;;;5.44;79.56
7200;BME280;3641;49.082;8.200;2023-02-12T05:36:17;102437.50;;;5.51;78.97
7200;BME280;3641;49.082;8.200;2023-02-12T05:38:44;102436.84;;;5.48;79.30
7200;BME280;3641;49.082;8.200;2023-02-12T05:41:12;102442.16;;;5.49;78.93
7200;BME280;3641;49.082;8.200;2023-02-12T05:43:40;102437.25;;;5.41;83.50
7200;BME280;3641;49.082;8.200;2023-02-12T05:46:08;102433.34;;;5.45;80.13
7200;BME280;3641;49.082;8.200;2023-02-12T05:48:35;102435.41;;;5.42;80.14
7200;BME280;3641;49.082;8.200;2023-02-12T05:51:03;102436.25;;;5.42;79.72
7200;BME280;3641;49.082;8.200;2023-02-12T05:53:29;102434.66;;;5.40;80.29
7200;BME280;3641;49.082;8.200;2023-02-12T05:56:06;102438.56;;;5.49;79.58
7200;BME280;3641;49.082;8.200;2023-02-12T05:58:33;102435.00;;;5.48;79.48
7200;BME280;3641;49.082;8.200;2023-02-12T06:01:01;102439.56;;;5.48;78.90
7200;BME280;3641;49.082;8.200;2023-02-12T06:03:27;102432.19;;;5.50;79.25
7200;BME280;3641;49.082;8.200;2023-02-12T06:05:56;102441.38;;;5.47;79.31
7200;BME280;3641;49.082;8.200;2023-02-12T06:08:23;102441.38;;;5.47;80.18
7200;BME280;3641;49.082;8.200;2023-02-12T06:10:49;102440.53;;;5.46;79.79
7200;BME280;3641;49.082;8.200;2023-02-12T06:13:16;102436.75;;;5.49;79.35
7200;BME280;3641;49.082;8.200;2023-02-12T06:15:42;102449.03;;;5.40;80.38
7200;BME280;3641;49.082;8.200;2023-02-12T06:18:10;102440.41;;;5.48;79.41
7200;BME280;3641;49.082;8.200;2023-02-12T06:20:37;102435.66;;;5.52;79.23
7200;BME280;3641;49.082;8.200;2023-02-12T06:23:04;102439.66;;;5.46;82.03
7200;BME280;3641;49.082;8.200;2023-02-12T06:25:30;102446.22;;;5.42;81.23
7200;BME280;3641;49.082;8.200;2023-02-12T06:27:57;102441.47;;;5.45;79.79
7200;BME280;3641;49.082;8.200;2023-02-12T06:30:23;102445.09;;;5.46;79.76
7200;BME280;3641;49.082;8.200;2023-02-12T06:32:50;102447.59;;;5.49;79.40
7200;BME280;3641;49.082;8.200;2023-02-12T06:35:17;102450.31;;;5.49;79.18
7200;BME280;3641;49.082;8.200;2023-02-12T06:37:44;102444.88;;;5.49;79.68
7200;BME280;3641;49.082;8.200;2023-02-12T06:40:11;102448.53;;;5.48;79.93
7200;BME280;3641;49.082;8.200;2023-02-12T06:42:38;102445.94;;;5.46;79.60
7200;BME280;3641;49.082;8.200;2023-02-12T06:45:04;102454.16;;;5.45;79.89
7200;BME280;3641;49.082;8.200;2023-02-12T06:47:31;102453.31;;;5.44;79.97
7200;BME280;3641;49.082;8.200;2023-02-12T06:49:58;102466.19;;;5.41;79.92
7200;BME280;3641;49.082;8.200;2023-02-12T06:52:26;102459.78;;;5.42;79.67
7200;BME280;3641;49.082;8.200;2023-02-12T06:54:53;102465.00;;;5.45;79.72
7200;BME280;3641;49.082;8.200;2023-02-12T06:57:20;102466.19;;;5.41;81.91
7200;BME280;3641;49.082;8.200;2023-02-12T06:59:46;102466.84;;;5.44;79.88
7200;BME280;3641;49.082;8.200;2023-02-12T07:02:12;102472.16;;;5.46;79.89
7200;BME280;3641;49.082;8.200;2023-02-12T07:04:39;102465.00;;;5.45;79.49
7200;BME280;3641;49.082;8.200;2023-02-12T07:07:06;102473.41;;;5.40;80.22
7200;BME280;3641;49.082;8.200;2023-02-12T07:09:34;102480.28;;;5.46;79.93
7200;BME280;3641;49.082;8.200;2023-02-12T07:12:00;102478.53;;;5.45;80.47
7200;BME280;3641;49.082;8.200;2023-02-12T07:14:27;102485.03;;;5.28;84.67
7200;BME280;3641;49.082;8.200;2023-02-12T07:16:53;102480.69;;;5.25;83.13
7200;BME280;3641;49.082;8.200;2023-02-12T07:19:20;102472.75;;;5.37;81.04
7200;BME280;3641;49.082;8.200;2023-02-12T07:21:47;102474.41;;;5.39;83.21
7200;BME280;3641;49.082;8.200;2023-02-12T07:24:14;102480.19;;;5.48;80.16
7200;BME280;3641;49.082;8.200;2023-02-12T07:26:43;102478.34;;;5.48;80.18
7200;BME280;3641;49.082;8.200;2023-02-12T07:29:10;102481.16;;;5.46;81.41
7200;BME280;3641;49.082;8.200;2023-02-12T07:31:37;102476.03;;;5.42;81.32
7200;BME280;3641;49.082;8.200;2023-02-12T07:34:03;102482.00;;;5.47;80.91
7200;BME280;3641;49.082;8.200;2023-02-12T07:36:31;102484.81;;;5.45;80.59
7200;BME280;3641;49.082;8.200;2023-02-12T07:38:58;102481.25;;;5.45;80.67
7200;BME280;3641;49.082;8.200;2023-02-12T07:41:27;102472.94;;;5.48;80.44
7200;BME280;3641;49.082;8.200;2023-02-12T07:43:57;102474.56;;;5.51;79.94
7200;BME280;3641;49.082;8.200;2023-02-12T07:46:25;102468.66;;;5.44;82.75
7200;BME280;3641;49.082;8.200;2023-02-12T07:48:54;102471.88;;;5.51;80.36
7200;BME280;3641;49.082;8.200;2023-02-12T07:51:21;102473.50;;;5.53;80.37
7200;BME280;3641;49.082;8.200;2023-02-12T07:53:48;102475.03;;;5.57;79.98
7200;BME280;3641;49.082;8.200;2023-02-12T07:56:16;102480.47;;;5.57;80.37
7200;BME280;3641;49.082;8.200;2023-02-12T07:58:44;102474.19;;;5.57;80.31
7200;BME280;3641;49.082;8.200;2023-02-12T08:01:17;102475.47;;;5.37;85.04
7200;BME280;3641;49.082;8.200;2023-02-12T08:03:45;102474.06;;;5.44;81.79
7200;BME280;3641;49.082;8.200;2023-02-12T08:06:13;102472.72;;;5.51;81.15
7200;BME280;3641;49.082;8.200;2023-02-12T08:08:40;102470.72;;;5.40;85.09
7200;BME280;3641;49.082;8.200;2023-02-12T08:11:08;102476.78;;;5.44;83.91
7200;BME280;3641;49.082;8.200;2023-02-12T08:13:36;102471.28;;;5.45;82.67
7200;BME280;3641;49.082;8.200;2023-02-12T08:16:05;102470.59;;;5.56;82.08
7200;BME280;3641;49.082;8.200;2023-02-12T08:18:34;102470.72;;;5.40;86.04
7200;BME280;3641;49.082;8.200;2023-02-12T08:21:02;102467.59;;;5.46;84.84
7200;BME280;3641;49.082;8.200;2023-02-12T08:23:29;102473.50;;;5.39;85.12
7200;BME280;3641;49.082;8.200;2023-02-12T08:26:04;102475.53;;;5.50;85.31
7200;BME280;3641;49.082;8.200;2023-02-12T08:28:31;102474.28;;;5.55;82.71
7200;BME280;3641;49.082;8.200;2023-02-12T08:30:59;102471.66;;;5.54;84.21
7200;BME280;3641;49.082;8.200;2023-02-12T08:33:25;102476.00;;;5.56;83.31
7200;BME280;3641;49.082;8.200;2023-02-12T08:36:01;102468.25;;;5.64;82.61
7200;BME280;3641;49.082;8.200;2023-02-12T08:38:27;102473.19;;;5.58;84.90
7200;BME280;3641;49.082;8.200;2023-02-12T08:40:54;102471.06;;;5.49;86.73
7200;BME280;3641;49.082;8.200;2023-02-12T08:43:21;102472.81;;;5.50;86.49
7200;BME280;3641;49.082;8.200;2023-02-12T08:45:47;102467.38;;;5.64;84.71
7200;BME280;3641;49.082;8.200;2023-02-12T08:48:13;102470.94;;;5.64;83.72
7200;BME280;3641;49.082;8.200;2023-02-12T08:50:40;102475.88;;;5.72;82.42
7200;BME280;3641;49.082;8.200;2023-02-12T08:53:08;102477.00;;;5.82;81.73
7200;BME280;3641;49.082;8.200;2023-02-12T08:55:34;102468.59;;;5.87;81.76
7200;BME280;3641;49.082;8.200;2023-02-12T08:58:00;102472.25;;;5.86;82.17
7200;BME280;3641;49.082;8.200;2023-02-12T09:00:28;102476.44;;;5.77;85.42
7200;BME280;3641;49.082;8.200;2023-02-12T09:02:55;102480.03;;;5.78;84.06
7200;BME280;3641;49.082;8.200;2023-02-12T09:05:21;102480.44;;;5.72;85.08
7200;BME280;3641;49.082;8.200;2023-02-12T09:07:47;102482.94;;;5.75;85.67
7200;BME280;3641;49.082;8.200;2023-02-12T09:10:16;102479.22;;;5.76;86.62
7200;BME280;3641;49.082;8.200;2023-02-12T09:12:42;102490.31;;;5.73;86.84
7200;BME280;3641;49.082;8.200;2023-02-12T09:15:09;102481.53;;;5.82;85.48
7200;BME280;3641;49.082;8.200;2023-02-12T09:17:35;102484.56;;;5.77;87.17
7200;BME280;3641;49.082;8.200;2023-02-12T09:20:01;102490.66;;;5.81;86.41
7200;BME280;3641;49.082;8.200;2023-02-12T09:22:28;102497.41;;;5.88;86.29
7200;BME280;3641;49.082;8.200;2023-02-12T09:24:54;102495.88;;;5.98;84.16
7200;BME280;3641;49.082;8.200;2023-02-12T09:27:22;102489.25;;;6.03;84.95
7200;BME280;3641;49.082;8.200;2023-02-12T09:29:49;102503.16;;;6.11;83.66
7200;BME280;3641;49.082;8.200;2023-02-12T09:32:15;102503.84;;;6.14;83.03
7200;BME280;3641;49.082;8.200;2023-02-12T09:34:42;102498.31;;;6.16;83.04
7200;BME280;3641;49.082;8.200;2023-02-12T09:37:08;102502.75;;;6.17;82.26
7200;BME280;3641;49.082;8.200;2023-02-12T09:39:34;102504.31;;;6.21;83.04
7200;BME280;3641;49.082;8.200;2023-02-12T09:42:12;102500.59;;;6.22;82.66
7200;BME280;3641;49.082;8.200;2023-02-12T09:44:46;102509.53;;;6.24;82.33
7200;BME280;3641;49.082;8.200;2023-02-12T09:47:19;102513.00;;;6.26;82.43
7200;BME280;3641;49.082;8.200;2023-02-12T09:49:59;102510.72;;;6.33;82.22
7200;BME280;3641;49.082;8.200;2023-02-12T09:52:29;102515.41;;;6.31;82.39
7200;BME280;3641;49.082;8.200;2023-02-12T09:54:56;102506.41;;;6.30;82.74
7200;BME280;3641;49.082;8.200;2023-02-12T09:57:25;102503.25;;;6.36;81.96
7200;BME280;3641;49.082;8.200;2023-02-12T09:59:58;102505.09;;;6.36;82.70
7200;BME280;3641;49.082;8.200;2023-02-12T10:02:25;102508.75;;;6.35;82.35
7200;BME280;3641;49.082;8.200;2023-02-12T10:04:52;102506.19;;;6.33;83.29
7200;BME280;3641;49.082;8.200;2023-02-12T10:07:27;102511.47;;;6.35;83.17
7200;BME280;3641;49.082;8.200;2023-02-12T10:10:18;102501.09;;;6.42;82.29
7200;BME280;3641;49.082;8.200;2023-02-12T10:12:54;102501.00;;;6.43;81.63
7200;BME280;3641;49.082;8.200;2023-02-12T10:15:31;102496.34;;;6.45;82.44
7200;BME280;3641;49.082;8.200;2023-02-12T10:18:17;102493.72;;;6.44;82.64
7200;BME280;3641;49.082;8.200;2023-02-12T10:20:57;102486.13;;;6.49;82.27
7200;BME280;3641;49.082;8.200;2023-02-12T10:23:43;102495.81;;;6.53;82.92
7200;BME280;3641;49.082;8.200;2023-02-12T10:26:18;102497.31;;;6.57;82.56
7200;BME280;3641;49.082;8.200;2023-02-12T10:28:46;102497.00;;;6.62;82.02
7200;BME280;3641;49.082;8.200;2023-02-12T10:31:19;102489.41;;;6.67;81.62
7200;BME280;3641;49.082;8.200;2023-02-12T10:33:49;102497.34;;;6.70;82.51
7200;BME280;3641;49.082;8.200;2023-02-12T10:36:30;102489.97;;;6.72;81.89
7200;BME280;3641;49.082;8.200;2023-02-12T10:39:05;102488.88;;;6.75;81.79
7200;BME280;3641;49.082;8.200;2023-02-12T10:41:41;102488.00;;;6.74;83.37
7200;BME280;3641;49.082;8.200;2023-02-12T10:44:09;102487.69;;;6.79;82.17
7200;BME280;3641;49.082;8.200;2023-02-12T10:46:37;102479.22;;;6.83;81.88
7200;BME280;3641;49.082;8.200;2023-02-12T10:49:04;102476.63;;;6.82;81.92
7200;BME280;3641;49.082;8.200;2023-02-12T10:52:02;102475.75;;;6.94;82.26
7200;BME280;3641;49.082;8.200;2023-02-12T10:54:38;102476.41;;;6.98;82.46
7200;BME280;3641;49.082;8.200;2023-02-12T10:57:10;102466.06;;;7.03;81.86
7200;BME280;3641;49.082;8.200;2023-02-12T10:59:37;102469.53;;;7.05;81.85
7200;BME280;3641;49.082;8.200;2023-02-12T11:02:21;102467.50;;;7.08;81.60
7200;BME280;3641;49.082;8.200;2023-02-12T11:04:48;102460.75;;;7.14;82.17
7200;BME280;3641;49.082;8.200;2023-02-12T11:07:15;102453.22;;;7.18;81.29
7200;BME280;3641;49.082;8.200;2023-02-12T11:09:43;102453.13;;;7.19;81.56
7200;BME280;3641;49.082;8.200;2023-02-12T11:12:20;102449.84;;;7.27;81.56
7200;BME280;3641;49.082;8.200;2023-02-12T11:14:51;102444.19;;;7.30;81.49
7200;BME280;3641;49.082;8.200;2023-02-12T11:17:24;102447.44;;;7.35;81.04
7200;BME280;3641;49.082;8.200;2023-02-12T11:22:55;102440.94;;;7.38;81.43
7200;BME280;3641;49.082;8.200;2023-02-12T11:25:24;102441.88;;;7.37;81.32
7200;BME280;3641;49.082;8.200;2023-02-12T11:28:13;102445.28;;;7.40;81.29
7200;BME280;3641;49.082;8.200;2023-02-12T11:30:48;102448.50;;;7.45;80.64
7200;BME280;3641;49.082;8.200;2023-02-12T11:33:28;102443.31;;;7.42;80.67
7200;BME280;3641;49.082;8.200;2023-02-12T11:35:58;102431.31;;;7.45;81.08
7200;BME280;3641;49.082;8.200;2023-02-12T11:38:34;102435.03;;;7.44;81.32
7200;BME280;3641;49.082;8.200;2023-02-12T11:41:06;102447.63;;;7.45;81.24
7200;BME280;3641;49.082;8.200;2023-02-12T11:43:35;102440.03;;;7.50;80.46
7200;BME280;3641;49.082;8.200;2023-02-12T11:46:04;102435.03;;;7.44;80.85
7200;BME280;3641;49.082;8.200;2023-02-12T11:48:35;102436.31;;;7.51;80.30
7200;BME280;3641;49.082;8.200;2023-02-12T11:51:05;102439.25;;;7.48;80.79
7200;BME280;3641;49.082;8.200;2023-02-12T11:53:36;102437.94;;;7.54;80.68
7200;BME280;3641;49.082;8.200;2023-02-12T11:56:07;102442.53;;;7.53;80.27
7200;BME280;3641;49.082;8.200;2023-02-12T11:58:35;102436.19;;;7.53;80.32
7200;BME280;3641;49.082;8.200;2023-02-12T12:01:14;102431.53;;;7.55;80.71
7200;BME280;3641;49.082;8.200;2023-02-12T12:03:50;102424.00;;;7.58;80.24
7200;BME280;3641;49.082;8.200;2023-02-12T12:06:33;102428.69;;;7.56;80.75
7200;BME280;3641;49.082;8.200;2023-02-12T12:09:10;102425.88;;;7.58;80.34
7200;BME280;3641;49.082;8.200;2023-02-12T12:11:46;102410.53;;;7.57;80.55
7200;BME280;3641;49.082;8.200;2023-02-12T12:14:23;102414.00;;;7.59;80.35
7200;BME280;3641;49.082;8.200;2023-02-12T12:16:54;102410.19;;;7.61;79.74
7200;BME280;3641;49.082;8.200;2023-02-12T12:19:46;102400.69;;;7.67;79.49
7200;BME280;3641;49.082;8.200;2023-02-12T12:22:25;102406.91;;;7.69;79.32
7200;BME280;3641;49.082;8.200;2023-02-12T12:24:59;102399.16;;;7.76;78.79
7200;BME280;3641;49.082;8.200;2023-02-12T12:27:35;102399.78;;;7.79;79.14
7200;BME280;3641;49.082;8.200;2023-02-12T12:30:32;102403.34;;;7.80;78.93
7200;BME280;3641;49.082;8.200;2023-02-12T12:33:05;102400.06;;;7.88;78.18
7200;BME280;3641;49.082;8.200;2023-02-12T12:35:44;102405.03;;;7.94;78.64
7200;BME280;3641;49.082;8.200;2023-02-12T12:38:20;102401.34;;;7.95;78.36
7200;BME280;3641;49.082;8.200;2023-02-12T12:41:00;102401.22;;;7.96;78.90
7200;BME280;3641;49.082;8.200;2023-02-12T12:43:35;102392.72;;;8.01;78.05
7200;BME280;3641;49.082;8.200;2023-02-12T12:46:30;102397.25;;;8.00;78.63
7200;BME280;3641;49.082;8.200;2023-02-12T12:49:25;102396.91;;;8.05;77.66
7200;BME280;3641;49.082;8.200;2023-02-12T12:52:44;102384.59;;;8.12;78.34
7200;BME280;3641;49.082;8.200;2023-02-12T12:55:43;102385.78;;;8.08;78.56
7200;BME280;3641;49.082;8.200;2023-02-12T12:58:20;102378.38;;;8.10;78.37
7200;BME280;3641;49.082;8.200;2023-02-12T13:01:05;102377.53;;;8.10;78.10
7200;BME280;3641;49.082;8.200;2023-02-12T13:03:56;102385.31;;;8.14;77.09
7200;BME280;3641;49.082;8.200;2023-02-12T13:06:37;102370.00;;;8.25;77.84
7200;BME280;3641;49.082;8.200;2023-02-12T13:09:22;102359.00;;;8.26;76.61
7200;BME280;3641;49.082;8.200;2023-02-12T13:12:07;102362.63;;;8.27;77.53
7200;BME280;3641;49.082;8.200;2023-02-12T13:14:42;102359.78;;;8.28;77.92
7200;BME280;3641;49.082;8.200;2023-02-12T13:17:17;102357.16;;;8.27;76.93
7200;BME280;3641;49.082;8.200;2023-02-12T13:19:56;102354.94;;;8.32;77.15
7200;BME280;3641;49.082;8.200;2023-02-12T13:22:29;102356.06;;;8.41;77.31
7200;BME280;3641;49.082;8.200;2023-02-12T13:25:04;102345.72;;;8.46;77.37
7200;BME280;3641;49.082;8.200;2023-02-12T13:27:35;102346.84;;;8.66;76.78
7200;BME280;3641;49.082;8.200;2023-02-12T13:30:17;102341.50;;;8.87;75.80
7200;BME280;3641;49.082;8.200;2023-02-12T13:32:47;102340.28;;;8.91;75.98
7200;BME280;3641;49.082;8.200;2023-02-12T13:35:19;102342.97;;;9.14;75.62
7200;BME280;3641;49.082;8.200;2023-02-12T13:37:48;102336.00;;;9.32;75.17
7200;BME280;3641;49.082;8.200;2023-02-12T13:40:18;102332.75;;;9.38;74.87
7200;BME280;3641;49.082;8.200;2023-02-12T13:42:50;102333.03;;;9.35;75.96
7200;BME280;3641;49.082;8.200;2023-02-12T13:45:26;102327.94;;;9.31;76.00
7200;BME280;3641;49.082;8.200;2023-02-12T13:48:11;102328.59;;;9.23;76.39